createdAt,value
2017-05-13T00:00:50.010Z,12.5
2017-05-13T00:02:12.478Z,12.5
2017-05-13T00:03:34.628Z,12.37
2017-05-13T00:04:56.791Z,12.31
2017-05-13T00:06:18.645Z,12.37
2017-05-13T00:07:40.800Z,12.39
2017-05-13T00:09:03.016Z,12.34
2017-05-13T00:10:25.166Z,12.27
2017-05-13T00:11:47.029Z,12.32
2017-05-13T00:13:09.174Z,12.28
2017-05-13T00:14:31.059Z,12.34
2017-05-13T00:15:53.511Z,12.35
2017-05-13T00:17:15.379Z,12.27
2017-05-13T00:18:37.250Z,12.24
2017-05-13T00:19:59.397Z,12.24
2017-05-13T00:21:21.842Z,12.17
2017-05-13T00:22:43.733Z,12.17
2017-05-13T00:24:05.618Z,12.21
2017-05-13T00:25:27.470Z,12.21
2017-05-13T00:26:49.308Z,12.19
2017-05-13T00:28:11.482Z,12.28
2017-05-13T00:29:33.963Z,12.31
2017-05-13T00:30:55.472Z,12.34
2017-05-13T00:32:18.239Z,12.29
2017-05-13T00:33:39.750Z,12.29
2017-05-13T00:35:02.019Z,12.52
2017-05-13T00:36:24.541Z,12.41
2017-05-13T00:37:46.989Z,12.41
2017-05-13T00:39:09.168Z,12.38
2017-05-13T00:40:30.680Z,12.31
2017-05-13T00:41:52.847Z,12.27
2017-05-13T00:43:15.038Z,12.2
2017-05-13T00:44:36.880Z,12.13
2017-05-13T00:45:58.740Z,12.04
2017-05-13T00:47:20.570Z,12.16
2017-05-13T00:48:43.378Z,11.99
2017-05-13T00:50:05.527Z,11.94
2017-05-13T00:51:27.065Z,12.02
2017-05-13T00:52:49.217Z,11.94
2017-05-13T00:54:11.051Z,11.91
2017-05-13T00:55:33.209Z,11.78
2017-05-13T00:56:54.873Z,11.75
2017-05-13T00:58:16.701Z,11.78
2017-05-13T00:59:39.429Z,11.72
2017-05-13T01:01:01.278Z,11.67
2017-05-13T01:02:23.110Z,11.62
2017-05-13T01:03:45.663Z,11.6
2017-05-13T01:05:07.778Z,11.51
2017-05-13T01:06:30.246Z,11.52
2017-05-13T01:07:52.138Z,11.47
2017-05-13T01:09:13.974Z,11.39
2017-05-13T01:10:36.601Z,11.35
2017-05-13T01:11:58.124Z,11.29
2017-05-13T01:13:20.280Z,11.17
2017-05-13T01:14:42.451Z,10.99
2017-05-13T01:16:05.272Z,10.99
2017-05-13T01:17:27.469Z,11.1
2017-05-13T01:18:48.986Z,11.19
2017-05-13T01:20:11.240Z,11.27
2017-05-13T01:21:33.697Z,11.29
2017-05-13T01:22:54.910Z,11.39
2017-05-13T01:24:17.057Z,11.37
2017-05-13T01:25:38.886Z,11.36
2017-05-13T01:27:01.046Z,11.35
2017-05-13T01:28:23.210Z,11.29
2017-05-13T01:29:45.681Z,11.27
2017-05-13T01:31:07.332Z,11.32
2017-05-13T01:32:29.146Z,11.22
2017-05-13T01:33:51.608Z,11.27
2017-05-13T01:35:13.775Z,11.25
2017-05-13T01:36:36.029Z,11.25
2017-05-13T01:37:58.205Z,11.29
2017-05-13T01:39:20.057Z,11.18
2017-05-13T01:40:41.886Z,11.17
2017-05-13T01:42:04.154Z,11.14
2017-05-13T01:43:26.345Z,11.1
2017-05-13T01:44:48.232Z,11
2017-05-13T01:46:10.384Z,10.81
2017-05-13T01:47:32.529Z,10.66
2017-05-13T01:48:54.702Z,10.59
2017-05-13T01:50:16.856Z,10.4
2017-05-13T01:51:38.685Z,10.34
2017-05-13T01:53:00.260Z,10.29
2017-05-13T01:54:22.402Z,10.25
2017-05-13T01:55:43.939Z,10.26
2017-05-13T01:57:06.093Z,10.3
2017-05-13T01:58:27.935Z,10.27
2017-05-13T01:59:50.454Z,10.26
2017-05-13T02:01:11.969Z,10.22
2017-05-13T02:02:34.251Z,10.26
2017-05-13T02:03:56.398Z,10.12
2017-05-13T02:05:18.218Z,10.18
2017-05-13T02:06:39.770Z,10.11
2017-05-13T02:08:01.608Z,10.11
2017-05-13T02:09:23.566Z,10.05
2017-05-13T02:10:45.820Z,9.97
2017-05-13T02:12:07.418Z,9.91
2017-05-13T02:13:29.269Z,10.01
2017-05-13T02:14:50.506Z,9.99
2017-05-13T02:16:12.970Z,9.96
2017-05-13T02:17:35.131Z,10.05
2017-05-13T02:18:57.296Z,10.11
2017-05-13T02:20:19.138Z,10.11
2017-05-13T02:21:40.621Z,9.97
2017-05-13T02:23:02.152Z,9.91
2017-05-13T02:24:24.301Z,9.78
2017-05-13T02:25:46.489Z,9.71
2017-05-13T02:27:08.929Z,9.68
2017-05-13T02:28:30.760Z,9.6
2017-05-13T02:29:52.277Z,9.61
2017-05-13T02:31:14.109Z,9.56
2017-05-13T02:32:36.274Z,9.57
2017-05-13T02:33:58.738Z,9.61
2017-05-13T02:35:20.575Z,9.54
2017-05-13T02:36:42.425Z,9.46
2017-05-13T02:38:04.284Z,9.29
2017-05-13T02:39:25.939Z,9.24
2017-05-13T02:40:48.118Z,9.18
2017-05-13T02:42:10.574Z,9.1
2017-05-13T02:43:32.706Z,9.15
2017-05-13T02:44:54.597Z,9.15
2017-05-13T02:46:16.105Z,9.28
2017-05-13T02:47:37.618Z,9.57
2017-05-13T02:48:59.489Z,9.58
2017-05-13T02:50:21.416Z,9.66
2017-05-13T02:51:42.317Z,9.81
2017-05-13T02:53:03.828Z,9.94
2017-05-13T02:54:25.999Z,10.12
2017-05-13T02:55:48.186Z,10.33
2017-05-13T02:57:10.068Z,10.4
2017-05-13T02:58:31.948Z,10.64
2017-05-13T02:59:54.519Z,10.64
2017-05-13T03:01:16.357Z,10.7
2017-05-13T03:02:38.020Z,10.67
2017-05-13T03:04:00.157Z,10.74
2017-05-13T03:05:21.921Z,10.71
2017-05-13T03:06:43.757Z,10.73
2017-05-13T03:08:05.277Z,10.7
2017-05-13T03:09:27.518Z,10.71
2017-05-13T03:10:49.384Z,10.74
2017-05-13T03:12:11.530Z,10.7
2017-05-13T03:13:33.668Z,10.79
2017-05-13T03:14:55.556Z,10.71
2017-05-13T03:16:18.055Z,10.74
2017-05-13T03:17:40.188Z,10.76
2017-05-13T03:19:02.117Z,10.73
2017-05-13T03:20:23.383Z,10.76
2017-05-13T03:21:44.909Z,10.84
2017-05-13T03:23:06.750Z,10.89
2017-05-13T03:24:28.887Z,10.84
2017-05-13T03:25:50.415Z,10.81
2017-05-13T03:27:12.959Z,10.84
2017-05-13T03:28:34.578Z,10.67
2017-05-13T03:29:56.433Z,10.74
2017-05-13T03:31:17.945Z,10.68
2017-05-13T03:32:39.778Z,10.71
2017-05-13T03:34:01.328Z,10.74
2017-05-13T03:35:23.581Z,10.74
2017-05-13T03:36:44.785Z,10.78
2017-05-13T03:38:06.612Z,10.78
2017-05-13T03:39:28.122Z,10.78
2017-05-13T03:40:49.627Z,10.79
2017-05-13T03:42:10.497Z,10.88
2017-05-13T03:43:32.936Z,10.84
2017-05-13T03:44:55.072Z,10.82
2017-05-13T03:46:16.918Z,10.89
2017-05-13T03:47:38.847Z,10.79
2017-05-13T03:49:01.019Z,10.76
2017-05-13T03:50:22.525Z,10.89
2017-05-13T03:51:44.368Z,10.86
2017-05-13T03:53:06.216Z,10.91
2017-05-13T03:54:28.069Z,10.96
2017-05-13T03:55:50.258Z,11
2017-05-13T03:57:12.117Z,11
2017-05-13T03:58:33.014Z,10.97
2017-05-13T03:59:55.562Z,11.03
2017-05-13T04:01:17.493Z,11.17
2017-05-13T04:02:40.104Z,11.19
2017-05-13T04:04:01.758Z,11.24
2017-05-13T04:05:24.155Z,11.29
2017-05-13T04:06:45.989Z,11.24
2017-05-13T04:08:08.128Z,11.33
2017-05-13T04:09:29.972Z,11.36
2017-05-13T04:10:51.789Z,11.35
2017-05-13T04:12:14.019Z,11.43
2017-05-13T04:13:35.876Z,11.44
2017-05-13T04:14:57.739Z,11.54
2017-05-13T04:16:20.197Z,11.54
2017-05-13T04:17:42.037Z,11.62
2017-05-13T04:19:04.279Z,11.79
2017-05-13T04:20:26.108Z,11.8
2017-05-13T04:21:47.991Z,11.88
2017-05-13T04:23:09.844Z,11.96
2017-05-13T04:24:31.699Z,11.88
2017-05-13T04:25:53.532Z,11.91
2017-05-13T04:27:16.175Z,11.95
2017-05-13T04:28:38.057Z,12.02
2017-05-13T04:30:00.305Z,12.16
2017-05-13T04:31:22.527Z,12.19
2017-05-13T04:32:44.656Z,12.16
2017-05-13T04:34:06.842Z,12.16
2017-05-13T04:35:28.133Z,12.21
2017-05-13T04:36:50.275Z,12.29
2017-05-13T04:38:12.559Z,12.32
2017-05-13T04:39:34.818Z,12.31
2017-05-13T04:40:56.677Z,12.52
2017-05-13T04:42:19.169Z,12.52
2017-05-13T04:43:41.974Z,12.62
2017-05-13T04:45:04.130Z,12.75
2017-05-13T04:46:26.289Z,12.85
2017-05-13T04:47:48.449Z,12.89
2017-05-13T04:49:10.607Z,12.92
2017-05-13T04:50:32.877Z,13.01
2017-05-13T04:51:54.725Z,13.05
2017-05-13T04:53:16.946Z,13.12
2017-05-13T04:54:38.783Z,13.33
2017-05-13T04:55:59.985Z,13.36
2017-05-13T04:57:22.540Z,13.39
2017-05-13T04:58:44.692Z,13.49
2017-05-13T05:00:06.817Z,13.46
2017-05-13T05:01:28.335Z,13.49
2017-05-13T05:02:50.154Z,13.46
2017-05-13T05:04:11.447Z,13.54
2017-05-13T05:05:32.580Z,13.6
2017-05-13T05:06:54.725Z,13.7
2017-05-13T05:08:16.878Z,13.79
2017-05-13T05:09:38.831Z,13.99
2017-05-13T05:11:01.281Z,13.99
2017-05-13T05:12:23.157Z,14.04
2017-05-13T05:13:45.038Z,14.22
2017-05-13T05:15:07.199Z,14.27
2017-05-13T05:16:29.339Z,14.25
2017-05-13T05:17:51.189Z,14.39
2017-05-13T05:19:13.657Z,14.69
2017-05-13T05:20:35.487Z,14.72
2017-05-13T05:21:57.070Z,14.64
2017-05-13T05:23:19.248Z,14.72
2017-05-13T05:24:41.279Z,14.72
2017-05-13T05:26:03.116Z,14.68
2017-05-13T05:27:25.628Z,14.73
2017-05-13T05:28:47.797Z,14.7
2017-05-13T05:30:09.947Z,14.77
2017-05-13T05:31:31.474Z,14.83
2017-05-13T05:32:53.944Z,14.84
2017-05-13T05:34:15.159Z,14.89
2017-05-13T05:35:37.318Z,14.84
2017-05-13T05:36:58.888Z,14.86
2017-05-13T05:38:21.373Z,14.86
2017-05-13T05:39:42.897Z,14.86
2017-05-13T05:41:04.401Z,14.89
2017-05-13T05:42:26.967Z,14.91
2017-05-13T05:43:49.117Z,15.03
2017-05-13T05:45:11.468Z,14.99
2017-05-13T05:46:33.305Z,15.23
2017-05-13T05:47:55.128Z,15.41
2017-05-13T05:49:17.647Z,15.51
2017-05-13T05:50:39.815Z,15.62
2017-05-13T05:52:01.973Z,15.9
2017-05-13T05:53:24.158Z,16.21
2017-05-13T05:54:46.385Z,16.5
2017-05-13T05:56:08.528Z,16.88
2017-05-13T05:57:30.678Z,17.11
2017-05-13T05:58:52.629Z,17.46
2017-05-13T06:00:15.458Z,17.82
2017-05-13T06:01:37.946Z,18.2
2017-05-13T06:03:00.078Z,18.58
2017-05-13T06:04:21.923Z,18.99
2017-05-13T06:05:44.488Z,19.19
2017-05-13T06:07:06.076Z,19.46
2017-05-13T06:08:27.918Z,19.94
2017-05-13T06:09:50.078Z,21.09
2017-05-13T06:11:12.238Z,21.98
2017-05-13T06:12:34.517Z,23.4
2017-05-13T06:13:56.678Z,25.33
2017-05-13T06:15:18.735Z,26.88
2017-05-13T06:16:40.945Z,28.22
2017-05-13T06:18:02.802Z,29.19
2017-05-13T06:19:25.277Z,28.39
2017-05-13T06:20:47.429Z,27.24
2017-05-13T06:22:09.834Z,26.33
2017-05-13T06:23:32.318Z,25.82
2017-05-13T06:24:54.466Z,25.47
2017-05-13T06:26:16.958Z,24.64
2017-05-13T06:27:38.562Z,24.3
2017-05-13T06:29:00.470Z,24.06
2017-05-13T06:30:22.978Z,23.79
2017-05-13T06:31:45.010Z,23.58
2017-05-13T06:33:07.848Z,23.23
2017-05-13T06:34:30.038Z,23.02
2017-05-13T06:35:51.911Z,22.68
2017-05-13T06:37:13.766Z,22.54
2017-05-13T06:38:35.681Z,22.31
2017-05-13T06:39:57.851Z,22.18
2017-05-13T06:41:19.810Z,22.3
2017-05-13T06:42:42.130Z,22.36
2017-05-13T06:44:04.888Z,22.58
2017-05-13T06:45:27.097Z,22.65
2017-05-13T06:46:49.298Z,22.51
2017-05-13T06:48:11.138Z,22.28
2017-05-13T06:49:33.618Z,21.96
2017-05-13T06:50:55.887Z,21.59
2017-05-13T06:52:17.792Z,21.38
2017-05-13T06:53:39.951Z,21.4
2017-05-13T06:55:01.797Z,21.32
2017-05-13T06:56:23.317Z,21.37
2017-05-13T06:57:45.499Z,21.31
2017-05-13T06:59:07.414Z,21.28
2017-05-13T07:00:29.756Z,21.28
2017-05-13T07:01:52.290Z,21.34
2017-05-13T07:03:14.484Z,21.34
2017-05-13T07:04:36.988Z,21.74
2017-05-13T07:05:59.486Z,22.2
2017-05-13T07:07:21.792Z,22.39
2017-05-13T07:08:43.750Z,22.64
2017-05-13T07:10:05.693Z,22.77
2017-05-13T07:11:27.855Z,22.88
2017-05-13T07:12:49.758Z,22.98
2017-05-13T07:14:11.610Z,23.07
2017-05-13T07:15:33.786Z,22.9
2017-05-13T07:16:55.619Z,22.75
2017-05-13T07:18:17.598Z,22.61
2017-05-13T07:19:39.780Z,22.49
2017-05-13T07:21:02.288Z,22.73
2017-05-13T07:22:24.426Z,22.7
2017-05-13T07:23:46.926Z,22.54
2017-05-13T07:25:09.098Z,22.58
2017-05-13T07:26:31.590Z,22.79
2017-05-13T07:27:53.727Z,22.95
2017-05-13T07:29:15.578Z,23.22
2017-05-13T07:30:37.447Z,23.28
2017-05-13T07:31:59.948Z,23.35
2017-05-13T07:33:22.727Z,23.53
2017-05-13T07:34:44.615Z,23.54
2017-05-13T07:36:07.401Z,23.31
2017-05-13T07:37:29.559Z,22.85
2017-05-13T07:38:52.035Z,22.67
2017-05-13T07:40:14.238Z,22.57
2017-05-13T07:41:36.737Z,22.55
2017-05-13T07:42:59.262Z,22.52
2017-05-13T07:44:22.001Z,22.58
2017-05-13T07:45:44.197Z,22.6
2017-05-13T07:47:05.827Z,22.46
2017-05-13T07:48:28.120Z,22.46
2017-05-13T07:49:50.666Z,22.4
2017-05-13T07:51:13.197Z,22.33
2017-05-13T07:52:35.718Z,22.15
2017-05-13T07:53:57.975Z,22.17
2017-05-13T07:55:20.800Z,21.96
2017-05-13T07:56:43.318Z,21.82
2017-05-13T07:58:05.518Z,21.65
2017-05-13T07:59:27.998Z,21.4
2017-05-13T08:00:50.577Z,21.31
2017-05-13T08:02:13.084Z,21.21
2017-05-13T08:03:35.579Z,20.99
2017-05-13T08:04:57.764Z,20.98
2017-05-13T08:06:19.975Z,20.57
2017-05-13T08:07:42.205Z,20.43
2017-05-13T08:09:04.767Z,20.54
2017-05-13T08:10:27.028Z,20.54
2017-05-13T08:11:49.634Z,20.57
2017-05-13T08:13:11.498Z,20.57
2017-05-13T08:14:33.348Z,20.66
2017-05-13T08:15:55.197Z,20.73
2017-05-13T08:17:18.127Z,20.69
2017-05-13T08:18:40.422Z,20.58
2017-05-13T08:20:02.468Z,20.52
2017-05-13T08:21:25.012Z,20.42
2017-05-13T08:22:47.165Z,20.54
2017-05-13T08:24:09.349Z,20.42
2017-05-13T08:25:31.856Z,20.59
2017-05-13T08:26:54.005Z,20.67
2017-05-13T08:28:16.746Z,20.98
2017-05-13T08:29:38.917Z,21.19
2017-05-13T08:31:00.452Z,21.49
2017-05-13T08:32:22.356Z,21.9
2017-05-13T08:33:44.950Z,22.21
2017-05-13T08:35:07.127Z,22.58
2017-05-13T08:36:29.632Z,22.91
2017-05-13T08:37:51.153Z,23.19
2017-05-13T08:39:13.502Z,23.35
2017-05-13T08:40:35.987Z,23.57
2017-05-13T08:41:57.664Z,23.7
2017-05-13T08:43:19.519Z,23.75
2017-05-13T08:44:41.676Z,23.72
2017-05-13T08:46:03.687Z,23.79
2017-05-13T08:47:26.159Z,23.76
2017-05-13T08:48:47.733Z,23.68
2017-05-13T08:50:10.270Z,24.05
2017-05-13T08:51:32.456Z,24.31
2017-05-13T08:52:54.318Z,24.08
2017-05-13T08:54:16.245Z,24.12
2017-05-13T08:55:38.075Z,24.22
2017-05-13T08:56:59.976Z,24.37
2017-05-13T08:58:22.506Z,24.85
2017-05-13T08:59:44.998Z,25.06
2017-05-13T09:01:07.828Z,25.15
2017-05-13T09:02:30.301Z,25.17
2017-05-13T09:04:24.430Z,25.38
2017-05-13T09:05:45.992Z,25.27
2017-05-13T09:07:08.474Z,25.23
2017-05-13T09:08:30.642Z,25.36
2017-05-13T09:09:52.809Z,25.32
2017-05-13T09:11:15.288Z,25.4
2017-05-13T09:12:37.146Z,25.32
2017-05-13T09:13:59.324Z,25.17
2017-05-13T09:15:21.614Z,25.17
2017-05-13T09:16:43.468Z,25.32
2017-05-13T09:18:05.964Z,25.38
2017-05-13T09:19:27.835Z,25.23
2017-05-13T09:20:49.694Z,25.27
2017-05-13T09:22:11.480Z,25.51
2017-05-13T09:23:32.747Z,25.61
2017-05-13T09:24:54.933Z,25.61
2017-05-13T09:26:16.787Z,25.6
2017-05-13T09:27:39.623Z,25.33
2017-05-13T09:29:01.822Z,25.39
2017-05-13T09:30:23.987Z,25.38
2017-05-13T09:31:46.158Z,25.23
2017-05-13T09:33:09.047Z,25.42
2017-05-13T09:34:31.224Z,25.69
2017-05-13T09:35:53.516Z,25.52
2017-05-13T09:37:16.017Z,25.25
2017-05-13T09:38:37.989Z,25.02
2017-05-13T09:40:00.170Z,25.13
2017-05-13T09:41:22.027Z,25.21
2017-05-13T09:42:44.206Z,25.51
2017-05-13T09:44:06.456Z,25.43
2017-05-13T09:45:28.305Z,25.09
2017-05-13T09:46:50.546Z,25
2017-05-13T09:48:12.085Z,25.06
2017-05-13T09:49:34.287Z,25.02
2017-05-13T09:50:56.467Z,24.85
2017-05-13T09:52:18.996Z,24.9
2017-05-13T09:53:41.507Z,24.98
2017-05-13T09:55:03.972Z,24.96
2017-05-13T09:56:25.518Z,24.85
2017-05-13T09:57:47.716Z,24.53
2017-05-13T09:59:09.885Z,24.45
2017-05-13T10:00:32.117Z,24.34
2017-05-13T10:01:54.714Z,24
2017-05-13T10:03:16.934Z,23.97
2017-05-13T10:04:38.869Z,24.03
2017-05-13T10:06:01.379Z,24.24
2017-05-13T10:07:23.305Z,24.28
2017-05-13T10:08:45.254Z,24.15
2017-05-13T10:10:07.741Z,23.88
2017-05-13T10:11:30.238Z,23.57
2017-05-13T10:12:52.757Z,23.39
2017-05-13T10:14:15.274Z,23.23
2017-05-13T10:15:36.807Z,23.32
2017-05-13T10:16:59.285Z,23.61
2017-05-13T10:18:21.174Z,24.09
2017-05-13T10:19:43.036Z,24.32
2017-05-13T10:21:05.269Z,24.83
2017-05-13T10:22:28.085Z,25.33
2017-05-13T10:23:49.987Z,25.75
2017-05-13T10:25:12.249Z,25.99
2017-05-13T10:26:34.107Z,26.05
2017-05-13T10:27:56.677Z,25.99
2017-05-13T10:29:18.541Z,25.99
2017-05-13T10:30:40.737Z,26.29
2017-05-13T10:32:02.346Z,26.48
2017-05-13T10:33:24.827Z,26.44
2017-05-13T10:34:47.416Z,26.45
2017-05-13T10:36:09.324Z,26.73
2017-05-13T10:37:31.245Z,26.91
2017-05-13T10:38:53.998Z,27.07
2017-05-13T10:40:15.933Z,26.94
2017-05-13T10:41:38.583Z,26.7
2017-05-13T10:43:00.454Z,26.67
2017-05-13T10:44:23.036Z,26.75
2017-05-13T10:45:45.563Z,26.76
2017-05-13T10:47:08.186Z,26.63
2017-05-13T10:48:30.672Z,26.2
2017-05-13T10:49:52.911Z,25.94
2017-05-13T10:51:15.086Z,25.61
2017-05-13T10:52:36.964Z,25.33
2017-05-13T10:53:58.945Z,24.93
2017-05-13T10:55:21.136Z,24.62
2017-05-13T10:56:43.651Z,24.4
2017-05-13T10:58:05.925Z,24.37
2017-05-13T10:59:27.875Z,24.34
2017-05-13T11:00:50.706Z,24.32
2017-05-13T11:02:12.587Z,24.55
2017-05-13T11:03:34.761Z,24.73
2017-05-13T11:04:56.935Z,24.84
2017-05-13T11:06:19.147Z,25.06
2017-05-13T11:07:41.649Z,25.1
2017-05-13T11:09:04.058Z,25.13
2017-05-13T11:10:26.287Z,25.38
2017-05-13T11:11:49.103Z,25.33
2017-05-13T11:13:10.742Z,25.4
2017-05-13T11:14:33.007Z,25.4
2017-05-13T11:15:54.955Z,25.4
2017-05-13T11:17:17.477Z,25.43
2017-05-13T11:18:39.646Z,25.3
2017-05-13T11:20:01.559Z,25.39
2017-05-13T11:21:24.054Z,25.4
2017-05-13T11:22:46.659Z,25.36
2017-05-13T11:24:08.916Z,25.5
2017-05-13T11:25:31.084Z,25.36
2017-05-13T11:26:53.662Z,25.35
2017-05-13T11:28:16.627Z,25.28
2017-05-13T11:29:38.811Z,25.33
2017-05-13T11:31:01.046Z,25.18
2017-05-13T11:32:23.649Z,25.21
2017-05-13T11:33:45.836Z,25.32
2017-05-13T11:35:39.978Z,25.58
2017-05-13T11:37:02.221Z,25.77
2017-05-13T11:38:24.075Z,26.23
2017-05-13T11:39:46.039Z,26.73
2017-05-13T11:41:08.569Z,27.13
2017-05-13T11:42:30.876Z,27.7
2017-05-13T11:43:53.451Z,27.97
2017-05-13T11:45:15.718Z,28.19
2017-05-13T11:46:38.216Z,28.17
2017-05-13T11:48:00.534Z,28.64
2017-05-13T11:49:22.705Z,28.83
2017-05-13T11:50:45.137Z,28.88
2017-05-13T11:52:07.227Z,28.7
2017-05-13T11:53:29.389Z,28.48
2017-05-13T11:54:51.576Z,28.36
2017-05-13T11:56:13.806Z,28.36
2017-05-13T11:57:36.013Z,28.43
2017-05-13T11:58:58.167Z,28.44
2017-05-13T12:00:20.407Z,28.77
2017-05-13T12:01:42.548Z,28.89
2017-05-13T12:03:04.087Z,28.55
2017-05-13T12:04:26.286Z,28.25
2017-05-13T12:05:48.453Z,28.09
2017-05-13T12:07:10.706Z,27.66
2017-05-13T12:08:33.054Z,27.18
2017-05-13T12:09:55.248Z,26.62
2017-05-13T12:11:17.177Z,26.51
2017-05-13T12:12:39.315Z,26.8
2017-05-13T12:14:00.908Z,27.17
2017-05-13T12:15:23.117Z,27.41
2017-05-13T12:16:45.389Z,27.7
2017-05-13T12:18:07.874Z,27.82
2017-05-13T12:19:30.058Z,27.88
2017-05-13T12:20:52.256Z,27.82
2017-05-13T12:22:14.422Z,28.06
2017-05-13T12:23:37.046Z,28.03
2017-05-13T12:24:59.566Z,28.14
2017-05-13T12:26:21.757Z,28.12
2017-05-13T12:27:43.613Z,28.18
2017-05-13T12:29:06.115Z,28.3
2017-05-13T12:30:28.029Z,27.93
2017-05-13T12:31:49.897Z,27.72
2017-05-13T12:33:12.176Z,27.36
2017-05-13T12:34:33.658Z,27.17
2017-05-13T12:35:55.539Z,27.04
2017-05-13T12:37:17.823Z,27.06
2017-05-13T12:38:40.114Z,27.21
2017-05-13T12:40:02.759Z,27.36
2017-05-13T12:41:24.643Z,27.54
2017-05-13T12:42:47.166Z,27.41
2017-05-13T12:44:09.363Z,27
2017-05-13T12:45:31.592Z,26.85
2017-05-13T12:46:53.156Z,26.77
2017-05-13T12:48:15.324Z,26.94
2017-05-13T12:49:36.916Z,27.07
2017-05-13T12:50:58.466Z,27.13
2017-05-13T12:52:20.747Z,27.4
2017-05-13T12:53:42.946Z,27.7
2017-05-13T12:55:05.456Z,27.63
2017-05-13T12:56:28.014Z,27.6
2017-05-13T12:57:49.905Z,27.39
2017-05-13T12:59:12.126Z,27.17
2017-05-13T13:00:34.671Z,27.21
2017-05-13T13:01:56.592Z,26.87
2017-05-13T13:03:19.076Z,26.67
2017-05-13T13:04:41.251Z,26.39
2017-05-13T13:06:03.746Z,26.25
2017-05-13T13:07:26.279Z,26.13
2017-05-13T13:08:48.468Z,26.02
2017-05-13T13:10:10.636Z,25.99
2017-05-13T13:11:32.837Z,25.94
2017-05-13T13:12:55.050Z,25.88
2017-05-13T13:14:16.914Z,25.76
2017-05-13T13:15:39.089Z,25.7
2017-05-13T13:17:00.951Z,25.62
2017-05-13T13:18:23.435Z,25.61
2017-05-13T13:19:44.997Z,25.39
2017-05-13T13:21:07.487Z,25.27
2017-05-13T13:22:29.046Z,25.23
2017-05-13T13:23:51.049Z,25.15
2017-05-13T13:25:13.547Z,25.05
2017-05-13T13:26:35.427Z,24.91
2017-05-13T13:27:57.909Z,24.81
2017-05-13T13:29:20.733Z,24.81
2017-05-13T13:30:44.224Z,24.85
2017-05-13T13:32:06.406Z,24.91
2017-05-13T13:33:28.907Z,24.9
2017-05-13T13:34:51.088Z,24.98
2017-05-13T13:36:13.676Z,24.93
2017-05-13T13:37:35.895Z,24.83
2017-05-13T13:38:58.105Z,24.76
2017-05-13T13:40:20.307Z,24.78
2017-05-13T13:41:42.596Z,24.69
2017-05-13T13:43:04.909Z,24.71
2017-05-13T13:44:26.751Z,24.83
2017-05-13T13:45:48.913Z,24.76
2017-05-13T13:47:10.443Z,24.81
2017-05-13T13:48:32.637Z,24.73
2017-05-13T13:49:55.204Z,24.81
2017-05-13T13:51:17.448Z,24.84
2017-05-13T13:52:39.928Z,24.85
2017-05-13T13:54:01.785Z,24.57
2017-05-13T13:55:23.963Z,24.52
2017-05-13T13:56:46.098Z,24.52
2017-05-13T13:58:08.578Z,24.6
2017-05-13T13:59:30.116Z,24.65
2017-05-13T14:00:51.997Z,24.61
2017-05-13T14:02:13.847Z,24.73
2017-05-13T14:03:35.389Z,24.78
2017-05-13T14:04:57.312Z,24.83
2017-05-13T14:06:19.826Z,24.83
2017-05-13T14:07:42.866Z,24.76
2017-05-13T14:09:05.067Z,24.8
2017-05-13T14:10:27.253Z,24.68
2017-05-13T14:11:49.561Z,24.76
2017-05-13T14:13:11.455Z,24.8
2017-05-13T14:14:33.087Z,24.77
2017-05-13T14:15:55.274Z,24.71
2017-05-13T14:17:17.478Z,24.65
2017-05-13T14:18:39.961Z,24.6
2017-05-13T14:20:02.138Z,24.47
2017-05-13T14:21:24.394Z,24.55
2017-05-13T14:22:45.617Z,24.58
2017-05-13T14:24:08.023Z,24.57
2017-05-13T14:25:30.516Z,24.58
2017-05-13T14:26:52.723Z,24.78
2017-05-13T14:28:15.326Z,24.87
2017-05-13T14:29:37.530Z,24.99
2017-05-13T14:30:59.517Z,25.13
2017-05-13T14:32:21.836Z,25.4
2017-05-13T14:33:43.375Z,25.5
2017-05-13T14:35:05.786Z,25.46
2017-05-13T14:36:27.332Z,25.39
2017-05-13T14:37:49.542Z,25.6
2017-05-13T14:39:12.053Z,25.58
2017-05-13T14:40:34.510Z,25.58
2017-05-13T14:41:57.148Z,25.79
2017-05-13T14:43:19.402Z,25.85
2017-05-13T14:44:41.265Z,25.88
2017-05-13T14:46:03.430Z,25.82
2017-05-13T14:47:25.924Z,25.76
2017-05-13T14:48:48.421Z,25.8
2017-05-13T14:50:10.698Z,25.82
2017-05-13T14:51:32.863Z,25.76
2017-05-13T14:52:55.202Z,25.8
2017-05-13T14:54:16.798Z,25.98
2017-05-13T14:55:38.125Z,26.17
2017-05-13T14:57:00.989Z,26.28
2017-05-13T14:58:23.482Z,26.52
2017-05-13T14:59:45.356Z,26.43
2017-05-13T15:01:07.853Z,26.48
2017-05-13T15:02:30.026Z,26.47
2017-05-13T15:03:51.543Z,26.35
2017-05-13T15:05:13.830Z,26.35
2017-05-13T15:06:35.695Z,26.39
2017-05-13T15:07:57.905Z,26.3
2017-05-13T15:09:19.800Z,26.23
2017-05-13T15:10:41.970Z,26.26
2017-05-13T15:12:04.814Z,26.37
2017-05-13T15:13:27.311Z,26.52
2017-05-13T15:14:49.971Z,26.5
2017-05-13T15:16:12.485Z,26.6
2017-05-13T15:17:35.116Z,26.54
2017-05-13T15:18:57.656Z,26.47
2017-05-13T15:20:20.165Z,26.37
2017-05-13T15:21:42.360Z,26.43
2017-05-13T15:23:04.895Z,26.39
2017-05-13T15:24:27.226Z,26.33
2017-05-13T15:25:48.764Z,26.36
2017-05-13T15:27:10.667Z,26.3
2017-05-13T15:28:32.848Z,26.02
2017-05-13T15:29:55.005Z,26.05
2017-05-13T15:31:16.895Z,25.85
2017-05-13T15:32:39.098Z,25.72
2017-05-13T15:34:01.715Z,25.46
2017-05-13T15:35:23.905Z,25
2017-05-13T15:36:46.184Z,24.83
2017-05-13T15:38:08.407Z,24.5
2017-05-13T15:39:30.278Z,24.24
2017-05-13T15:40:53.250Z,23.97
2017-05-13T15:42:15.569Z,23.78
2017-05-13T15:43:37.436Z,23.48
2017-05-13T15:44:59.616Z,23.39
2017-05-13T15:46:22.412Z,23.32
2017-05-13T15:47:44.273Z,23.25
2017-05-13T15:49:06.456Z,23.07
2017-05-13T15:50:28.716Z,23.13
2017-05-13T15:51:51.306Z,23.05
2017-05-13T15:53:13.477Z,23.13
2017-05-13T15:54:35.358Z,23.13
2017-05-13T15:55:57.545Z,23.15
2017-05-13T15:57:20.057Z,23.09
2017-05-13T15:58:42.237Z,23.22
2017-05-13T16:00:04.756Z,23.28
2017-05-13T16:01:27.368Z,23.38
2017-05-13T16:02:49.812Z,23.47
2017-05-13T16:04:12.326Z,23.65
2017-05-13T16:05:34.809Z,23.69
2017-05-13T16:06:57.507Z,23.7
2017-05-13T16:08:20.297Z,23.72
2017-05-13T16:09:42.496Z,23.75
2017-05-13T16:11:04.336Z,23.72
2017-05-13T16:12:26.198Z,23.66
2017-05-13T16:13:48.654Z,23.65
2017-05-13T16:15:10.833Z,23.6
2017-05-13T16:16:32.491Z,23.46
2017-05-13T16:17:54.416Z,23.31
2017-05-13T16:19:16.584Z,23.31
2017-05-13T16:20:38.436Z,23.16
2017-05-13T16:22:00.935Z,22.97
2017-05-13T16:23:23.107Z,22.91
2017-05-13T16:24:45.843Z,22.88
2017-05-13T16:26:07.698Z,22.76
2017-05-13T16:27:30.172Z,22.75
2017-05-13T16:28:52.867Z,22.85
2017-05-13T16:30:15.387Z,22.91
2017-05-13T16:31:37.633Z,22.92
2017-05-13T16:33:00.157Z,22.86
2017-05-13T16:34:22.648Z,22.88
2017-05-13T16:35:45.233Z,22.9
2017-05-13T16:37:07.476Z,22.76
2017-05-13T16:38:29.743Z,22.64
2017-05-13T16:39:51.958Z,22.33
2017-05-13T16:41:14.441Z,22.14
2017-05-13T16:42:36.944Z,21.58
2017-05-13T16:43:58.807Z,20.67
2017-05-13T16:45:20.338Z,20.13
2017-05-13T16:46:42.511Z,20.03
2017-05-13T16:48:04.405Z,19.91
2017-05-13T16:49:26.419Z,19.81
2017-05-13T16:50:48.642Z,19.8
2017-05-13T16:52:10.783Z,19.55
2017-05-13T16:53:32.933Z,19.32
2017-05-13T16:54:54.840Z,19.26
2017-05-13T16:56:17.440Z,19.16
2017-05-13T16:57:39.738Z,19.25
2017-05-13T16:59:01.579Z,19.32
2017-05-13T17:00:23.761Z,19.13
2017-05-13T17:01:46.237Z,18.72
2017-05-13T17:03:09.165Z,18.87
2017-05-13T17:04:31.702Z,19
2017-05-13T17:05:54.198Z,18.87
2017-05-13T17:07:16.683Z,19.1
2017-05-13T17:08:39.658Z,19.11
2017-05-13T17:10:02.249Z,18.82
2017-05-13T17:11:24.726Z,18.8
2017-05-13T17:12:46.939Z,18.85
2017-05-13T17:14:09.731Z,18.84
2017-05-13T17:15:32.248Z,18.84
2017-05-13T17:16:54.415Z,18.82
2017-05-13T17:18:16.679Z,18.99
2017-05-13T17:19:38.511Z,19.25
2017-05-13T17:21:00.150Z,19.25
2017-05-13T17:22:22.338Z,19.23
2017-05-13T17:23:44.197Z,19.44
2017-05-13T17:25:07.020Z,19.58
2017-05-13T17:26:29.653Z,19.61
2017-05-13T17:27:51.519Z,19.43
2017-05-13T17:29:13.741Z,19.4
2017-05-13T17:30:35.569Z,19.16
2017-05-13T17:31:58.077Z,19.25
2017-05-13T17:33:20.554Z,19.07
2017-05-13T17:34:42.440Z,18.9
2017-05-13T17:36:05.241Z,19.1
2017-05-13T17:37:27.438Z,18.67
2017-05-13T17:38:48.963Z,18.52
2017-05-13T17:40:11.477Z,18.41
2017-05-13T17:41:33.986Z,18.23
2017-05-13T17:42:56.486Z,18.23
2017-05-13T17:44:18.968Z,18.26